sensor_id;sensor_type;location;lat;lon;timestamp;P1;durP1;ratioP1;P2;durP2;ratioP2
73421;SDS011;61637;47.760;-122.022;2023-05-10T00:00:01;6.5;;;1.6;;
73421;SDS011;61637;47.760;-122.022;2023-05-10T00:02:01;7.8;;;1.7;;
73421;SDS011;61637;47.760;-122.022;2023-05-10T00:04:01;6.5;;;1.7;;
73421;SDS011;61637;47.760;-122.022;2023-05-10T00:06:01;6.6;;;1.7;;
73421;SDS011;61637;47.760;-122.022;2023-05-10T00:08:01;4.6;;;1.5;;
73421;SDS011;61637;47.760;-122.022;2023-05-10T00:10:01;6.1;;;1.8;;
73421;SDS011;61637;47.760;-122.022;2023-05-10T00:12:01;5.6;;;1.5;;
73421;SDS011;61637;47.760;-122.022;2023-05-10T00:14:01;6.5;;;1.6;;
73421;SDS011;61637;47.760;-122.022;2023-05-10T00:16:02;6.5;;;1.8;;
73421;SDS011;61637;47.760;-122.022;2023-05-10T00:18:01;5.9;;;1.8;;
73421;SDS011;61637;47.760;-122.022;2023-05-10T00:20:02;7.3;;;2.0;;
73421;SDS011;61637;47.760;-122.022;2023-05-10T00:22:01;5.0;;;1.8;;
73421;SDS011;61637;47.760;-122.022;2023-05-10T00:24:01;6.0;;;1.7;;
73421;SDS011;61637;47.760;-122.022;2023-05-10T00:26:01;5.5;;;1.7;;
73421;SDS011;61637;47.760;-122.022;2023-05-10T00:28:01;6.1;;;1.8;;
73421;SDS011;61637;47.760;-122.022;2023-05-10T00:30:01;7.1;;;1.6;;
73421;SDS011;61637;47.760;-122.022;2023-05-10T00:32:01;4.7;;;1.6;;
73421;SDS011;61637;47.760;-122.022;2023-05-10T00:34:01;4.8;;;1.5;;
73421;SDS011;61637;47.760;-122.022;2023-05-10T00:36:01;6.9;;;1.7;;
73421;SDS011;61637;47.760;-122.022;2023-05-10T00:38:01;5.8;;;1.8;;
73421;SDS011;61637;47.760;-122.022;2023-05-10T00:40:02;5.0;;;1.7;;
73421;SDS011;61637;47.760;-122.022;2023-05-10T00:42:01;5.9;;;1.6;;
73421;SDS011;61637;47.760;-122.022;2023-05-10T00:44:01;6.0;;;1.5;;
73421;SDS011;61637;47.760;-122.022;2023-05-10T00:46:01;7.0;;;1.6;;
73421;SDS011;61637;47.760;-122.022;2023-05-10T00:48:02;5.2;;;1.6;;
73421;SDS011;61637;47.760;-122.022;2023-05-10T00:50:01;4.4;;;1.5;;
73421;SDS011;61637;47.760;-122.022;2023-05-10T00:52:01;4.8;;;1.5;;
73421;SDS011;61637;47.760;-122.022;2023-05-10T00:54:01;5.0;;;1.5;;
73421;SDS011;61637;47.760;-122.022;2023-05-10T00:56:02;7.6;;;1.8;;
73421;SDS011;61637;47.760;-122.022;2023-05-10T00:58:02;6.2;;;1.6;;
73421;SDS011;61637;47.760;-122.022;2023-05-10T01:00:04;6.0;;;1.6;;
73421;SDS011;61637;47.760;-122.022;2023-05-10T01:02:01;5.6;;;1.5;;
73421;SDS011;61637;47.760;-122.022;2023-05-10T01:04:02;4.5;;;1.6;;
73421;SDS011;61637;47.760;-122.022;2023-05-10T01:06:01;5.3;;;1.6;;
73421;SDS011;61637;47.760;-122.022;2023-05-10T01:08:01;5.3;;;1.8;;
73421;SDS011;61637;47.760;-122.022;2023-05-10T01:10:01;7.7;;;1.6;;
73421;SDS011;61637;47.760;-122.022;2023-05-10T01:12:02;5.0;;;1.6;;
73421;SDS011;61637;47.760;-122.022;2023-05-10T01:14:02;5.0;;;1.6;;
73421;SDS011;61637;47.760;-122.022;2023-05-10T01:16:01;6.4;;;1.6;;
73421;SDS011;61637;47.760;-122.022;2023-05-10T01:18:02;6.3;;;1.9;;
73421;SDS011;61637;47.760;-122.022;2023-05-10T01:20:01;5.4;;;1.6;;
73421;SDS011;61637;47.760;-122.022;2023-05-10T01:22:08;5.0;;;1.7;;
73421;SDS011;61637;47.760;-122.022;2023-05-10T01:24:19;6.8;;;1.6;;
73421;SDS011;61637;47.760;-122.022;2023-05-10T01:26:15;5.4;;;1.9;;
73421;SDS011;61637;47.760;-122.022;2023-05-10T01:28:08;6.9;;;1.8;;
73421;SDS011;61637;47.760;-122.022;2023-05-10T01:30:08;5.0;;;1.7;;
73421;SDS011;61637;47.760;-122.022;2023-05-10T01:32:15;6.8;;;1.7;;
73421;SDS011;61637;47.760;-122.022;2023-05-10T01:34:03;6.8;;;1.7;;
73421;SDS011;61637;47.760;-122.022;2023-05-10T01:36:08;8.4;;;1.9;;
73421;SDS011;61637;47.760;-122.022;2023-05-10T01:38:07;5.8;;;1.6;;
73421;SDS011;61637;47.760;-122.022;2023-05-10T01:40:08;5.7;;;1.8;;
73421;SDS011;61637;47.760;-122.022;2023-05-10T01:42:04;5.7;;;1.8;;
73421;SDS011;61637;47.760;-122.022;2023-05-10T01:44:04;6.4;;;1.8;;
73421;SDS011;61637;47.760;-122.022;2023-05-10T01:46:05;6.0;;;1.6;;
73421;SDS011;61637;47.760;-122.022;2023-05-10T01:48:06;5.1;;;1.6;;
73421;SDS011;61637;47.760;-122.022;2023-05-10T01:50:04;4.9;;;1.6;;
73421;SDS011;61637;47.760;-122.022;2023-05-10T01:52:08;4.7;;;1.7;;
73421;SDS011;61637;47.760;-122.022;2023-05-10T01:54:02;5.6;;;1.7;;
73421;SDS011;61637;47.760;-122.022;2023-05-10T01:56:02;5.6;;;1.6;;
73421;SDS011;61637;47.760;-122.022;2023-05-10T01:58:07;6.3;;;1.8;;
73421;SDS011;61637;47.760;-122.022;2023-05-10T02:00:04;5.3;;;1.6;;
73421;SDS011;61637;47.760;-122.022;2023-05-10T02:02:02;7.3;;;1.9;;
73421;SDS011;61637;47.760;-122.022;2023-05-10T02:04:01;4.5;;;1.6;;
73421;SDS011;61637;47.760;-122.022;2023-05-10T02:06:01;3.9;;;1.5;;
73421;SDS011;61637;47.760;-122.022;2023-05-10T02:08:02;6.4;;;1.7;;
73421;SDS011;61637;47.760;-122.022;2023-05-10T02:10:02;7.2;;;1.7;;
73421;SDS011;61637;47.760;-122.022;2023-05-10T02:12:02;6.3;;;1.7;;
73421;SDS011;61637;47.760;-122.022;2023-05-10T02:14:01;7.0;;;1.7;;
73421;SDS011;61637;47.760;-122.022;2023-05-10T02:16:01;5.8;;;1.8;;
73421;SDS011;61637;47.760;-122.022;2023-05-10T02:18:02;6.5;;;1.9;;
73421;SDS011;61637;47.760;-122.022;2023-05-10T02:20:03;8.2;;;1.8;;
73421;SDS011;61637;47.760;-122.022;2023-05-10T02:22:02;6.8;;;1.7;;
73421;SDS011;61637;47.760;-122.022;2023-05-10T02:24:02;6.7;;;1.8;;
73421;SDS011;61637;47.760;-122.022;2023-05-10T02:26:02;5.5;;;1.7;;
73421;SDS011;61637;47.760;-122.022;2023-05-10T02:28:03;5.3;;;1.8;;
73421;SDS011;61637;47.760;-122.022;2023-05-10T02:30:02;6.2;;;1.7;;
73421;SDS011;61637;47.760;-122.022;2023-05-10T02:32:01;8.0;;;2.0;;
73421;SDS011;61637;47.760;-122.022;2023-05-10T02:34:02;11.8;;;2.6;;
73421;SDS011;61637;47.760;-122.022;2023-05-10T02:36:03;9.1;;;2.6;;
73421;SDS011;61637;47.760;-122.022;2023-05-10T02:38:02;9.0;;;3.0;;
73421;SDS011;61637;47.760;-122.022;2023-05-10T02:40:02;10.6;;;3.3;;
73421;SDS011;61637;47.760;-122.022;2023-05-10T02:42:02;10.2;;;2.5;;
73421;SDS011;61637;47.760;-122.022;2023-05-10T02:44:02;9.9;;;2.4;;
73421;SDS011;61637;47.760;-122.022;2023-05-10T02:46:02;8.0;;;2.5;;
73421;SDS011;61637;47.760;-122.022;2023-05-10T02:48:01;10.4;;;3.0;;
73421;SDS011;61637;47.760;-122.022;2023-05-10T02:50:01;10.0;;;3.0;;
73421;SDS011;61637;47.760;-122.022;2023-05-10T02:52:04;10.4;;;3.2;;
73421;SDS011;61637;47.760;-122.022;2023-05-10T02:54:06;9.4;;;2.4;;
73421;SDS011;61637;47.760;-122.022;2023-05-10T02:56:05;9.3;;;2.4;;
73421;SDS011;61637;47.760;-122.022;2023-05-10T02:58:02;7.8;;;2.3;;
73421;SDS011;61637;47.760;-122.022;2023-05-10T03:00:02;9.6;;;2.5;;
73421;SDS011;61637;47.760;-122.022;2023-05-10T03:02:02;7.8;;;2.1;;
73421;SDS011;61637;47.760;-122.022;2023-05-10T03:04:01;7.7;;;2.1;;
73421;SDS011;61637;47.760;-122.022;2023-05-10T03:06:01;6.4;;;2.0;;
73421;SDS011;61637;47.760;-122.022;2023-05-10T03:08:01;11.2;;;3.7;;
73421;SDS011;61637;47.760;-122.022;2023-05-10T03:10:01;13.0;;;3.5;;
73421;SDS011;61637;47.760;-122.022;2023-05-10T03:12:18;8.4;;;2.8;;
73421;SDS011;61637;47.760;-122.022;2023-05-10T03:14:10;5.4;;;2.0;;
73421;SDS011;61637;47.760;-122.022;2023-05-10T03:16:08;9.7;;;2.1;;
73421;SDS011;61637;47.760;-122.022;2023-05-10T03:18:06;5.6;;;1.8;;
73421;SDS011;61637;47.760;-122.022;2023-05-10T03:20:06;8.2;;;1.8;;
73421;SDS011;61637;47.760;-122.022;2023-05-10T03:22:08;9.5;;;2.0;;
73421;SDS011;61637;47.760;-122.022;2023-05-10T03:24:06;6.5;;;1.9;;
73421;SDS011;61637;47.760;-122.022;2023-05-10T03:26:02;9.4;;;1.9;;
73421;SDS011;61637;47.760;-122.022;2023-05-10T03:28:02;8.9;;;1.9;;
73421;SDS011;61637;47.760;-122.022;2023-05-10T03:30:03;8.5;;;1.8;;
73421;SDS011;61637;47.760;-122.022;2023-05-10T03:32:02;11.4;;;1.7;;
73421;SDS011;61637;47.760;-122.022;2023-05-10T03:34:01;6.7;;;1.7;;
73421;SDS011;61637;47.760;-122.022;2023-05-10T03:36:01;8.0;;;1.9;;
73421;SDS011;61637;47.760;-122.022;2023-05-10T03:38:02;10.2;;;1.6;;
73421;SDS011;61637;47.760;-122.022;2023-05-10T03:40:01;9.5;;;1.6;;
73421;SDS011;61637;47.760;-122.022;2023-05-10T03:42:01;5.9;;;1.7;;
73421;SDS011;61637;47.760;-122.022;2023-05-10T03:44:01;4.6;;;1.4;;
73421;SDS011;61637;47.760;-122.022;2023-05-10T03:46:01;4.9;;;1.5;;
73421;SDS011;61637;47.760;-122.022;2023-05-10T03:48:01;4.7;;;1.3;;
73421;SDS011;61637;47.760;-122.022;2023-05-10T03:50:01;5.4;;;1.5;;
73421;SDS011;61637;47.760;-122.022;2023-05-10T03:52:01;6.2;;;1.4;;
73421;SDS011;61637;47.760;-122.022;2023-05-10T03:54:01;7.0;;;1.5;;
73421;SDS011;61637;47.760;-122.022;2023-05-10T03:56:01;5.5;;;1.4;;
73421;SDS011;61637;47.760;-122.022;2023-05-10T03:58:01;7.8;;;1.5;;
73421;SDS011;61637;47.760;-122.022;2023-05-10T04:00:01;7.0;;;1.5;;
73421;SDS011;61637;47.760;-122.022;2023-05-10T04:02:01;5.4;;;1.7;;
73421;SDS011;61637;47.760;-122.022;2023-05-10T04:04:01;5.0;;;1.4;;
73421;SDS011;61637;47.760;-122.022;2023-05-10T04:06:02;7.3;;;1.5;;
73421;SDS011;61637;47.760;-122.022;2023-05-10T04:08:01;7.1;;;1.5;;
73421;SDS011;61637;47.760;-122.022;2023-05-10T04:10:01;7.5;;;1.6;;
73421;SDS011;61637;47.760;-122.022;2023-05-10T04:12:01;7.1;;;1.6;;
73421;SDS011;61637;47.760;-122.022;2023-05-10T04:14:02;7.5;;;1.8;;
73421;SDS011;61637;47.760;-122.022;2023-05-10T04:16:02;9.0;;;1.6;;
73421;SDS011;61637;47.760;-122.022;2023-05-10T04:18:01;6.4;;;1.5;;
73421;SDS011;61637;47.760;-122.022;2023-05-10T04:20:01;7.3;;;1.6;;
73421;SDS011;61637;47.760;-122.022;2023-05-10T04:22:03;6.2;;;1.6;;
73421;SDS011;61637;47.760;-122.022;2023-05-10T04:24:01;5.6;;;1.6;;
73421;SDS011;61637;47.760;-122.022;2023-05-10T04:26:02;8.1;;;2.0;;
73421;SDS011;61637;47.760;-122.022;2023-05-10T04:28:01;6.7;;;1.8;;
73421;SDS011;61637;47.760;-122.022;2023-05-10T04:30:01;9.3;;;2.2;;
73421;SDS011;61637;47.760;-122.022;2023-05-10T04:32:01;10.8;;;2.0;;
73421;SDS011;61637;47.760;-122.022;2023-05-10T04:34:01;7.0;;;2.1;;
73421;SDS011;61637;47.760;-122.022;2023-05-10T04:36:01;9.1;;;2.2;;
73421;SDS011;61637;47.760;-122.022;2023-05-10T04:38:01;6.8;;;2.1;;
73421;SDS011;61637;47.760;-122.022;2023-05-10T04:40:01;7.5;;;2.5;;
73421;SDS011;61637;47.760;-122.022;2023-05-10T04:42:02;9.6;;;2.3;;
73421;SDS011;61637;47.760;-122.022;2023-05-10T04:44:01;7.4;;;2.0;;
73421;SDS011;61637;47.760;-122.022;2023-05-10T04:46:01;8.1;;;2.0;;
73421;SDS011;61637;47.760;-122.022;2023-05-10T04:48:01;9.3;;;2.4;;
73421;SDS011;61637;47.760;-122.022;2023-05-10T04:50:01;7.7;;;2.3;;
73421;SDS011;61637;47.760;-122.022;2023-05-10T04:52:01;7.7;;;2.3;;
73421;SDS011;61637;47.760;-122.022;2023-05-10T04:54:01;7.4;;;2.1;;
73421;SDS011;61637;47.760;-122.022;2023-05-10T04:56:01;8.0;;;2.1;;
73421;SDS011;61637;47.760;-122.022;2023-05-10T04:58:01;9.9;;;2.1;;
73421;SDS011;61637;47.760;-122.022;2023-05-10T05:00:01;7.4;;;1.9;;
73421;SDS011;61637;47.760;-122.022;2023-05-10T05:02:01;8.6;;;2.0;;
73421;SDS011;61637;47.760;-122.022;2023-05-10T05:04:01;8.1;;;2.0;;
73421;SDS011;61637;47.760;-122.022;2023-05-10T05:06:01;6.7;;;1.8;;
73421;SDS011;61637;47.760;-122.022;2023-05-10T05:08:02;9.6;;;2.1;;
73421;SDS011;61637;47.760;-122.022;2023-05-10T05:10:01;8.9;;;1.8;;
73421;SDS011;61637;47.760;-122.022;2023-05-10T05:12:01;7.3;;;1.8;;
73421;SDS011;61637;47.760;-122.022;2023-05-10T05:14:01;9.2;;;2.1;;
73421;SDS011;61637;47.760;-122.022;2023-05-10T05:16:02;7.8;;;1.7;;
73421;SDS011;61637;47.760;-122.022;2023-05-10T05:18:01;8.6;;;1.9;;
73421;SDS011;61637;47.760;-122.022;2023-05-10T05:20:02;6.6;;;1.6;;
73421;SDS011;61637;47.760;-122.022;2023-05-10T05:22:01;9.7;;;1.8;;
73421;SDS011;61637;47.760;-122.022;2023-05-10T05:24:01;7.1;;;1.7;;
73421;SDS011;61637;47.760;-122.022;2023-05-10T05:26:01;9.0;;;1.8;;
73421;SDS011;61637;47.760;-122.022;2023-05-10T05:28:01;10.9;;;2.0;;
73421;SDS011;61637;47.760;-122.022;2023-05-10T05:30:01;7.6;;;1.8;;
73421;SDS011;61637;47.760;-122.022;2023-05-10T05:32:01;9.3;;;1.9;;
73421;SDS011;61637;47.760;-122.022;2023-05-10T05:34:01;6.7;;;1.9;;
73421;SDS011;61637;47.760;-122.022;2023-05-10T05:36:02;9.9;;;1.9;;
73421;SDS011;61637;47.760;-122.022;2023-05-10T05:38:01;7.4;;;1.8;;
73421;SDS011;61637;47.760;-122.022;2023-05-10T05:40:01;7.8;;;1.6;;
73421;SDS011;61637;47.760;-122.022;2023-05-10T05:42:01;8.5;;;1.9;;
73421;SDS011;61637;47.760;-122.022;2023-05-10T05:44:01;9.7;;;2.0;;
73421;SDS011;61637;47.760;-122.022;2023-05-10T05:46:01;13.5;;;2.1;;
73421;SDS011;61637;47.760;-122.022;2023-05-10T05:48:01;8.7;;;2.0;;
73421;SDS011;61637;47.760;-122.022;2023-05-10T05:50:01;9.8;;;1.8;;
73421;SDS011;61637;47.760;-122.022;2023-05-10T05:52:02;10.0;;;1.7;;
73421;SDS011;61637;47.760;-122.022;2023-05-10T05:54:01;8.9;;;1.8;;
73421;SDS011;61637;47.760;-122.022;2023-05-10T05:56:02;8.8;;;1.8;;
73421;SDS011;61637;47.760;-122.022;2023-05-10T05:58:01;8.8;;;1.8;;
73421;SDS011;61637;47.760;-122.022;2023-05-10T06:00:01;8.9;;;1.8;;
73421;SDS011;61637;47.760;-122.022;2023-05-10T06:02:01;10.3;;;1.8;;
73421;SDS011;61637;47.760;-122.022;2023-05-10T06:04:01;10.1;;;1.8;;
73421;SDS011;61637;47.760;-122.022;2023-05-10T06:06:01;8.7;;;1.7;;
73421;SDS011;61637;47.760;-122.022;2023-05-10T06:08:01;9.4;;;2.0;;
73421;SDS011;61637;47.760;-122.022;2023-05-10T06:10:01;7.7;;;1.6;;
73421;SDS011;61637;47.760;-122.022;2023-05-10T06:12:01;9.9;;;1.9;;
73421;SDS011;61637;47.760;-122.022;2023-05-10T06:14:02;8.6;;;1.8;;
73421;SDS011;61637;47.760;-122.022;2023-05-10T06:16:02;8.0;;;1.7;;
73421;SDS011;61637;47.760;-122.022;2023-05-10T06:18:01;8.7;;;2.2;;
73421;SDS011;61637;47.760;-122.022;2023-05-10T06:20:01;10.4;;;1.8;;
73421;SDS011;61637;47.760;-122.022;2023-05-10T06:22:01;9.7;;;1.7;;
73421;SDS011;61637;47.760;-122.022;2023-05-10T06:24:01;6.5;;;1.8;;
73421;SDS011;61637;47.760;-122.022;2023-05-10T06:26:01;7.6;;;1.6;;
73421;SDS011;61637;47.760;-122.022;2023-05-10T06:28:01;7.7;;;1.8;;
73421;SDS011;61637;47.760;-122.022;2023-05-10T06:30:01;11.2;;;1.9;;
73421;SDS011;61637;47.760;-122.022;2023-05-10T06:32:01;8.1;;;1.8;;
73421;SDS011;61637;47.760;-122.022;2023-05-10T06:34:01;10.4;;;1.9;;
73421;SDS011;61637;47.760;-122.022;2023-05-10T06:36:01;7.3;;;1.9;;
73421;SDS011;61637;47.760;-122.022;2023-05-10T06:38:01;10.0;;;1.9;;
73421;SDS011;61637;47.760;-122.022;2023-05-10T06:40:01;8.2;;;1.7;;
73421;SDS011;61637;47.760;-122.022;2023-05-10T06:42:01;9.9;;;2.0;;
73421;SDS011;61637;47.760;-122.022;2023-05-10T06:44:01;8.1;;;1.9;;
73421;SDS011;61637;47.760;-122.022;2023-05-10T06:46:01;9.9;;;2.1;;
73421;SDS011;61637;47.760;-122.022;2023-05-10T06:48:02;9.8;;;2.1;;
73421;SDS011;61637;47.760;-122.022;2023-05-10T06:50:01;11.9;;;2.2;;
73421;SDS011;61637;47.760;-122.022;2023-05-10T06:52:01;9.3;;;1.8;;
73421;SDS011;61637;47.760;-122.022;2023-05-10T06:54:01;7.1;;;2.1;;
73421;SDS011;61637;47.760;-122.022;2023-05-10T06:56:01;9.7;;;1.9;;
73421;SDS011;61637;47.760;-122.022;2023-05-10T06:58:01;8.9;;;1.9;;
73421;SDS011;61637;47.760;-122.022;2023-05-10T07:00:02;12.2;;;2.0;;
73421;SDS011;61637;47.760;-122.022;2023-05-10T07:02:01;8.5;;;2.1;;
73421;SDS011;61637;47.760;-122.022;2023-05-10T07:04:01;8.4;;;1.9;;
73421;SDS011;61637;47.760;-122.022;2023-05-10T07:06:02;8.9;;;1.9;;
73421;SDS011;61637;47.760;-122.022;2023-05-10T07:08:01;9.4;;;2.0;;
73421;SDS011;61637;47.760;-122.022;2023-05-10T07:10:02;9.3;;;2.1;;
73421;SDS011;61637;47.760;-122.022;2023-05-10T07:12:01;7.0;;;1.8;;
73421;SDS011;61637;47.760;-122.022;2023-05-10T07:14:01;9.9;;;2.2;;
73421;SDS011;61637;47.760;-122.022;2023-05-10T07:16:01;8.4;;;2.0;;
73421;SDS011;61637;47.760;-122.022;2023-05-10T07:18:02;11.8;;;2.2;;
73421;SDS011;61637;47.760;-122.022;2023-05-10T07:20:01;9.4;;;1.9;;
73421;SDS011;61637;47.760;-122.022;2023-05-10T07:22:01;10.9;;;2.0;;
73421;SDS011;61637;47.760;-122.022;2023-05-10T07:24:01;10.9;;;2.1;;
73421;SDS011;61637;47.760;-122.022;2023-05-10T07:26:01;7.1;;;2.0;;
73421;SDS011;61637;47.760;-122.022;2023-05-10T07:28:01;8.7;;;2.1;;
73421;SDS011;61637;47.760;-122.022;2023-05-10T07:30:01;10.2;;;2.2;;
73421;SDS011;61637;47.760;-122.022;2023-05-10T07:32:01;11.1;;;2.1;;
73421;SDS011;61637;47.760;-122.022;2023-05-10T07:34:01;9.9;;;1.9;;
73421;SDS011;61637;47.760;-122.022;2023-05-10T07:36:01;11.3;;;1.9;;
73421;SDS011;61637;47.760;-122.022;2023-05-10T07:38:01;10.2;;;2.1;;
73421;SDS011;61637;47.760;-122.022;2023-05-10T07:40:01;7.8;;;1.9;;
73421;SDS011;61637;47.760;-122.022;2023-05-10T07:42:02;9.9;;;2.1;;
73421;SDS011;61637;47.760;-122.022;2023-05-10T07:44:01;7.8;;;2.0;;
73421;SDS011;61637;47.760;-122.022;2023-05-10T07:46:01;8.7;;;2.1;;
73421;SDS011;61637;47.760;-122.022;2023-05-10T07:48:02;9.2;;;2.0;;
73421;SDS011;61637;47.760;-122.022;2023-05-10T07:50:01;8.3;;;2.1;;
73421;SDS011;61637;47.760;-122.022;2023-05-10T07:52:02;10.6;;;2.2;;
73421;SDS011;61637;47.760;-122.022;2023-05-10T07:54:02;11.2;;;2.5;;
73421;SDS011;61637;47.760;-122.022;2023-05-10T07:58:02;8.3;;;2.1;;
73421;SDS011;61637;47.760;-122.022;2023-05-10T08:00:01;9.3;;;2.1;;
73421;SDS011;61637;47.760;-122.022;2023-05-10T08:02:01;11.0;;;2.3;;
73421;SDS011;61637;47.760;-122.022;2023-05-10T08:04:01;9.0;;;2.2;;
73421;SDS011;61637;47.760;-122.022;2023-05-10T08:06:01;10.1;;;2.2;;
73421;SDS011;61637;47.760;-122.022;2023-05-10T08:08:01;10.7;;;2.3;;
73421;SDS011;61637;47.760;-122.022;2023-05-10T08:10:02;10.6;;;2.2;;
73421;SDS011;61637;47.760;-122.022;2023-05-10T08:12:01;9.1;;;2.1;;
73421;SDS011;61637;47.760;-122.022;2023-05-10T08:14:01;10.7;;;2.1;;
73421;SDS011;61637;47.760;-122.022;2023-05-10T08:16:01;10.1;;;2.3;;
73421;SDS011;61637;47.760;-122.022;2023-05-10T08:18:01;8.8;;;2.3;;
73421;SDS011;61637;47.760;-122.022;2023-05-10T08:20:01;9.1;;;2.1;;
73421;SDS011;61637;47.760;-122.022;2023-05-10T08:22:01;10.4;;;2.2;;
73421;SDS011;61637;47.760;-122.022;2023-05-10T08:24:02;11.6;;;2.4;;
73421;SDS011;61637;47.760;-122.022;2023-05-10T08:26:01;8.4;;;2.1;;
73421;SDS011;61637;47.760;-122.022;2023-05-10T08:28:01;8.6;;;2.4;;
73421;SDS011;61637;47.760;-122.022;2023-05-10T08:30:02;11.2;;;2.3;;
73421;SDS011;61637;47.760;-122.022;2023-05-10T08:32:01;10.7;;;2.4;;
73421;SDS011;61637;47.760;-122.022;2023-05-10T08:34:01;9.0;;;2.3;;
73421;SDS011;61637;47.760;-122.022;2023-05-10T08:36:01;8.6;;;2.6;;
73421;SDS011;61637;47.760;-122.022;2023-05-10T08:38:01;8.3;;;2.2;;
73421;SDS011;61637;47.760;-122.022;2023-05-10T08:40:01;7.6;;;2.5;;
73421;SDS011;61637;47.760;-122.022;2023-05-10T08:42:04;10.1;;;2.5;;
73421;SDS011;61637;47.760;-122.022;2023-05-10T08:44:04;11.8;;;2.6;;
73421;SDS011;61637;47.760;-122.022;2023-05-10T08:46:01;11.9;;;2.3;;
73421;SDS011;61637;47.760;-122.022;2023-05-10T08:48:01;11.3;;;2.6;;
73421;SDS011;61637;47.760;-122.022;2023-05-10T08:50:03;8.7;;;2.2;;
73421;SDS011;61637;47.760;-122.022;2023-05-10T08:52:03;9.2;;;2.5;;
73421;SDS011;61637;47.760;-122.022;2023-05-10T08:54:02;9.3;;;2.4;;
73421;SDS011;61637;47.760;-122.022;2023-05-10T08:56:02;9.1;;;2.3;;
73421;SDS011;61637;47.760;-122.022;2023-05-10T08:58:01;7.7;;;2.3;;
73421;SDS011;61637;47.760;-122.022;2023-05-10T09:00:02;8.8;;;2.2;;
73421;SDS011;61637;47.760;-122.022;2023-05-10T09:02:02;10.0;;;2.3;;
73421;SDS011;61637;47.760;-122.022;2023-05-10T09:04:02;9.6;;;2.3;;
73421;SDS011;61637;47.760;-122.022;2023-05-10T09:06:01;13.4;;;2.3;;
73421;SDS011;61637;47.760;-122.022;2023-05-10T09:08:01;11.5;;;2.5;;
73421;SDS011;61637;47.760;-122.022;2023-05-10T09:10:01;8.8;;;2.5;;
73421;SDS011;61637;47.760;-122.022;2023-05-10T09:12:01;10.3;;;2.3;;
73421;SDS011;61637;47.760;-122.022;2023-05-10T09:14:01;10.0;;;2.5;;
73421;SDS011;61637;47.760;-122.022;2023-05-10T09:16:01;11.3;;;2.8;;
73421;SDS011;61637;47.760;-122.022;2023-05-10T09:18:01;13.3;;;2.5;;
73421;SDS011;61637;47.760;-122.022;2023-05-10T09:20:02;11.9;;;2.7;;
73421;SDS011;61637;47.760;-122.022;2023-05-10T09:22:01;8.2;;;2.4;;
73421;SDS011;61637;47.760;-122.022;2023-05-10T09:24:03;11.9;;;3.1;;
73421;SDS011;61637;47.760;-122.022;2023-05-10T09:26:03;11.2;;;2.8;;
73421;SDS011;61637;47.760;-122.022;2023-05-10T09:28:02;10.2;;;2.8;;
73421;SDS011;61637;47.760;-122.022;2023-05-10T09:30:02;12.6;;;2.9;;
73421;SDS011;61637;47.760;-122.022;2023-05-10T09:32:01;9.4;;;2.8;;
73421;SDS011;61637;47.760;-122.022;2023-05-10T09:34:01;10.7;;;2.8;;
73421;SDS011;61637;47.760;-122.022;2023-05-10T09:36:07;10.5;;;2.8;;
73421;SDS011;61637;47.760;-122.022;2023-05-10T09:38:03;9.8;;;2.4;;
73421;SDS011;61637;47.760;-122.022;2023-05-10T09:40:05;9.5;;;2.5;;
73421;SDS011;61637;47.760;-122.022;2023-05-10T09:42:03;8.6;;;2.4;;
73421;SDS011;61637;47.760;-122.022;2023-05-10T09:44:01;9.0;;;2.2;;
73421;SDS011;61637;47.760;-122.022;2023-05-10T09:46:08;8.9;;;2.1;;
73421;SDS011;61637;47.760;-122.022;2023-05-10T09:48:02;12.9;;;2.2;;
73421;SDS011;61637;47.760;-122.022;2023-05-10T09:50:02;12.6;;;2.4;;
73421;SDS011;61637;47.760;-122.022;2023-05-10T09:52:03;11.2;;;2.3;;
73421;SDS011;61637;47.760;-122.022;2023-05-10T09:54:11;10.6;;;2.6;;
73421;SDS011;61637;47.760;-122.022;2023-05-10T09:56:01;12.9;;;2.3;;
73421;SDS011;61637;47.760;-122.022;2023-05-10T09:58:02;12.4;;;2.7;;
73421;SDS011;61637;47.760;-122.022;2023-05-10T10:00:01;9.6;;;2.3;;
73421;SDS011;61637;47.760;-122.022;2023-05-10T10:02:02;12.7;;;2.4;;
73421;SDS011;61637;47.760;-122.022;2023-05-10T10:04:03;12.9;;;2.7;;
73421;SDS011;61637;47.760;-122.022;2023-05-10T10:06:02;11.6;;;2.3;;
73421;SDS011;61637;47.760;-122.022;2023-05-10T10:08:03;9.6;;;2.2;;
73421;SDS011;61637;47.760;-122.022;2023-05-10T10:10:02;11.9;;;2.6;;
73421;SDS011;61637;47.760;-122.022;2023-05-10T10:12:01;15.5;;;2.6;;
73421;SDS011;61637;47.760;-122.022;2023-05-10T10:14:02;12.1;;;2.5;;
73421;SDS011;61637;47.760;-122.022;2023-05-10T10:16:02;9.6;;;2.3;;
73421;SDS011;61637;47.760;-122.022;2023-05-10T10:18:02;12.8;;;2.3;;
73421;SDS011;61637;47.760;-122.022;2023-05-10T10:20:03;8.5;;;2.5;;
73421;SDS011;61637;47.760;-122.022;2023-05-10T10:22:01;8.5;;;2.5;;
73421;SDS011;61637;47.760;-122.022;2023-05-10T10:24:01;10.1;;;2.5;;
73421;SDS011;61637;47.760;-122.022;2023-05-10T10:26:02;10.6;;;2.2;;
73421;SDS011;61637;47.760;-122.022;2023-05-10T10:28:11;10.0;;;2.2;;
73421;SDS011;61637;47.760;-122.022;2023-05-10T10:30:09;10.9;;;2.3;;
73421;SDS011;61637;47.760;-122.022;2023-05-10T10:32:07;10.9;;;2.3;;
73421;SDS011;61637;47.760;-122.022;2023-05-10T10:34:06;11.6;;;2.1;;
73421;SDS011;61637;47.760;-122.022;2023-05-10T10:36:02;11.5;;;2.3;;
73421;SDS011;61637;47.760;-122.022;2023-05-10T10:38:01;11.0;;;2.3;;
73421;SDS011;61637;47.760;-122.022;2023-05-10T10:40:01;13.8;;;2.6;;
73421;SDS011;61637;47.760;-122.022;2023-05-10T10:42:01;8.4;;;2.1;;
73421;SDS011;61637;47.760;-122.022;2023-05-10T10:46:11;10.9;;;2.3;;
73421;SDS011;61637;47.760;-122.022;2023-05-10T10:50:06;8.7;;;2.3;;
73421;SDS011;61637;47.760;-122.022;2023-05-10T10:52:15;8.5;;;2.0;;
73421;SDS011;61637;47.760;-122.022;2023-05-10T10:54:08;9.8;;;2.0;;
73421;SDS011;61637;47.760;-122.022;2023-05-10T10:56:09;12.4;;;2.2;;
73421;SDS011;61637;47.760;-122.022;2023-05-10T10:58:01;7.8;;;2.3;;
73421;SDS011;61637;47.760;-122.022;2023-05-10T11:02:01;8.2;;;2.1;;
73421;SDS011;61637;47.760;-122.022;2023-05-10T11:04:18;10.3;;;2.2;;
73421;SDS011;61637;47.760;-122.022;2023-05-10T11:06:01;10.0;;;2.3;;
73421;SDS011;61637;47.760;-122.022;2023-05-10T11:08:08;10.0;;;2.4;;
73421;SDS011;61637;47.760;-122.022;2023-05-10T11:10:05;10.0;;;2.2;;
73421;SDS011;61637;47.760;-122.022;2023-05-10T11:12:08;11.9;;;2.1;;
73421;SDS011;61637;47.760;-122.022;2023-05-10T11:14:04;9.0;;;2.3;;
73421;SDS011;61637;47.760;-122.022;2023-05-10T11:16:12;9.1;;;2.2;;
73421;SDS011;61637;47.760;-122.022;2023-05-10T11:18:18;9.2;;;2.1;;
73421;SDS011;61637;47.760;-122.022;2023-05-10T11:20:09;10.4;;;2.3;;
73421;SDS011;61637;47.760;-122.022;2023-05-10T11:22:12;8.7;;;2.3;;
73421;SDS011;61637;47.760;-122.022;2023-05-10T11:24:01;11.9;;;2.3;;
73421;SDS011;61637;47.760;-122.022;2023-05-10T11:26:01;9.5;;;2.5;;
73421;SDS011;61637;47.760;-122.022;2023-05-10T11:28:02;10.3;;;2.1;;
73421;SDS011;61637;47.760;-122.022;2023-05-10T11:30:01;10.5;;;2.2;;
73421;SDS011;61637;47.760;-122.022;2023-05-10T11:32:01;10.2;;;2.6;;
73421;SDS011;61637;47.760;-122.022;2023-05-10T11:34:01;9.9;;;2.0;;
73421;SDS011;61637;47.760;-122.022;2023-05-10T11:36:01;9.9;;;2.4;;
73421;SDS011;61637;47.760;-122.022;2023-05-10T11:38:01;8.2;;;2.3;;
73421;SDS011;61637;47.760;-122.022;2023-05-10T11:40:01;9.0;;;2.6;;
73421;SDS011;61637;47.760;-122.022;2023-05-10T11:42:01;11.7;;;2.4;;
73421;SDS011;61637;47.760;-122.022;2023-05-10T11:44:02;10.2;;;2.5;;
73421;SDS011;61637;47.760;-122.022;2023-05-10T11:46:01;10.2;;;2.3;;
73421;SDS011;61637;47.760;-122.022;2023-05-10T11:48:02;8.7;;;2.4;;
73421;SDS011;61637;47.760;-122.022;2023-05-10T11:50:01;9.0;;;2.4;;
73421;SDS011;61637;47.760;-122.022;2023-05-10T11:52:05;10.3;;;2.5;;
73421;SDS011;61637;47.760;-122.022;2023-05-10T11:54:05;10.7;;;2.3;;
73421;SDS011;61637;47.760;-122.022;2023-05-10T11:56:03;10.8;;;2.4;;